Time;durP1;ratioP1;P1;durP2;ratioP2;P2;SDS_P1;SDS_P2;PMS_P1;PMS_P2;Temp;Humidity;BMP_temperature;BMP_pressure;BME280_temperature;BME280_humidity;BME280_pressure;Samples;Min_cycle;Max_cycle;Signal;HPM_P1;HPM_P2
2022/12/19 00:01:45;;;;;;;44.73;27.40;;;;;;;-4.24;56.99;100775.31;10438756;28;20239;-65
2022/12/19 00:06:47;;;;;;;47.93;29.40;;;;;;;-4.20;58.66;100740.25;10430198;28;20698;-65
2022/12/19 00:11:49;;;;;;;51.83;30.80;;;;;;;-4.45;57.66;100797.09;10433281;28;20643;-66
2022/12/19 00:16:52;;;;;;;51.87;30.90;;;;;;;-3.63;56.51;100710.78;10440341;28;20236;-66
2022/12/19 00:21:54;;;;;;;60.00;32.67;;;;;;;-3.67;57.62;100697.00;10443252;28;20895;-63
2022/12/19 00:26:56;;;;;;;52.40;32.17;;;;;;;-5.32;59.17;100847.41;10440236;28;20278;-65
2022/12/19 00:31:59;;;;;;;51.60;30.07;;;;;;;-4.72;59.02;100776.38;10441229;28;20271;-64
2022/12/19 00:37:01;;;;;;;49.37;31.57;;;;;;;-5.19;60.40;100807.78;10440046;28;20233;-66
2022/12/19 00:42:03;;;;;;;52.93;31.17;;;;;;;-3.44;57.01;100689.84;10443183;28;20751;-65
2022/12/19 00:47:04;;;;;;;58.67;32.53;;;;;;;-4.56;58.37;100760.97;10442504;28;20226;-66
2022/12/19 00:52:06;;;;;;;56.03;30.00;;;;;;;-3.81;57.56;100691.53;10439800;28;20241;-65
2022/12/19 00:57:07;;;;;;;51.03;29.30;;;;;;;-3.80;57.92;100694.06;10425705;28;20271;-66
2022/12/19 01:02:09;;;;;;;52.40;29.93;;;;;;;-4.17;58.34;100732.28;10447945;28;20300;-65
2022/12/19 01:07:11;;;;;;;50.60;29.53;;;;;;;-4.36;58.74;100729.63;10437389;28;20243;-65
2022/12/19 01:17:33;;;;;;;50.57;27.47;;;;;;;-3.94;57.16;100703.44;10435217;28;20246;-66
2022/12/19 01:22:44;;;;;;;52.13;28.53;;;;;;;-4.12;58.10;100707.75;10443568;28;20226;-65
2022/12/19 01:27:46;;;;;;;51.10;29.23;;;;;;;-3.52;56.82;100652.72;10442696;28;20235;-65
2022/12/19 01:32:48;;;;;;;49.17;28.30;;;;;;;-5.23;59.67;100786.19;10431159;28;20285;-66
2022/12/19 01:37:51;;;;;;;49.13;30.47;;;;;;;-4.26;59.31;100674.34;10441676;28;20979;-66
2022/12/19 01:43:13;;;;;;;51.50;28.97;;;;;;;-5.42;60.45;100786.03;10439007;28;20232;-66
2022/12/19 01:48:34;;;;;;;54.80;30.00;;;;;;;-5.20;61.44;100720.81;10436642;28;20235;-65
2022/12/19 01:53:57;;;;;;;51.03;29.47;;;;;;;-3.66;58.83;100585.34;10438086;28;20251;-65
2022/12/19 01:59:04;;;;;;;54.77;32.10;;;;;;;-4.38;58.23;100689.66;10436365;28;20245;-66
2022/12/19 02:04:08;;;;;;;52.40;32.83;;;;;;;-4.86;59.91;100727.31;10440123;28;20241;-67
2022/12/19 02:09:10;;;;;;;55.50;33.13;;;;;;;-3.73;57.98;100621.41;10437805;28;20242;-65
2022/12/19 02:14:12;;;;;;;63.13;34.63;;;;;;;-3.32;56.78;100597.66;10439685;28;20248;-66
2022/12/19 02:19:45;;;;;;;54.33;31.53;;;;;;;-4.44;58.66;100705.56;10440906;28;20812;-65
2022/12/19 02:25:05;;;;;;;53.33;30.70;;;;;;;-4.85;60.72;100715.09;10435690;28;20284;-65
2022/12/19 02:30:12;;;;;;;52.57;30.20;;;;;;;-3.75;58.72;100615.41;10437978;28;20873;-66
2022/12/19 02:35:31;;;;;;;51.10;28.63;;;;;;;-4.42;58.77;100685.44;10430707;28;20317;-65
2022/12/19 02:40:39;;;;;;;49.10;29.23;;;;;;;-4.88;60.50;100716.09;10439988;28;20238;-65
2022/12/19 02:45:42;;;;;;;47.87;29.00;;;;;;;-4.62;59.92;100690.66;10436438;28;20745;-65
2022/12/19 02:50:47;;;;;;;54.57;31.57;;;;;;;-4.90;60.97;100713.53;10440103;28;20237;-65
2022/12/19 02:56:16;;;;;;;52.80;30.43;;;;;;;-4.20;58.39;100668.84;10433839;28;20304;-67
2022/12/19 03:01:35;;;;;;;48.40;27.97;;;;;;;-3.69;58.23;100627.34;10430464;28;20228;-65
2022/12/19 03:06:42;;;;;;;44.07;27.87;;;;;;;-2.89;56.93;100576.41;10440057;28;20681;-65
2022/12/19 03:11:48;;;;;;;41.47;25.67;;;;;;;-3.38;57.25;100632.00;10433026;28;20744;-64
2022/12/19 03:16:50;;;;;;;45.47;27.53;;;;;;;-3.22;57.25;100635.56;10436038;28;20231;-65
2022/12/19 03:21:51;;;;;;;50.20;28.80;;;;;;;-2.98;56.90;100624.84;10437872;28;20242;-66
2022/12/19 03:27:07;;;;;;;44.03;26.13;;;;;;;-3.18;56.75;100648.50;10432037;28;20239;-65
2022/12/19 03:32:13;;;;;;;41.30;26.87;;;;;;;-2.85;56.43;100625.06;10433075;28;20258;-65
2022/12/19 03:37:19;;;;;;;44.23;26.17;;;;;;;-3.02;56.75;100648.63;10433871;28;20226;-65
2022/12/19 03:47:50;;;;;;;45.20;26.67;;;;;;;-4.04;58.98;100708.25;10443370;28;20230;-68
2022/12/19 03:53:09;;;;;;;46.03;28.07;;;;;;;-4.46;59.89;100730.09;10445283;28;20240;-65
2022/12/19 03:58:23;;;;;;;47.97;28.93;;;;;;;-4.30;59.82;100714.59;10440338;28;20237;-64
2022/12/19 04:03:27;;;;;;;50.67;27.87;;;;;;;-4.22;59.91;100710.72;10443995;28;20239;-65
2022/12/19 04:08:30;;;;;;;49.03;30.63;;;;;;;-4.55;61.05;100724.31;10440981;28;20618;-65
2022/12/19 04:13:38;;;;;;;48.27;27.83;;;;;;;-4.19;60.58;100681.84;10443609;28;20438;-66
2022/12/19 04:18:46;;;;;;;45.67;28.67;;;;;;;-4.39;60.88;100701.00;10439368;28;20274;-63
2022/12/19 04:23:56;;;;;;;43.77;26.23;;;;;;;-4.55;60.67;100718.22;10438328;28;20246;-63
2022/12/19 04:29:01;;;;;;;50.33;29.50;;;;;;;-4.48;61.06;100695.31;10449905;28;20234;-65
2022/12/19 04:34:03;;;;;;;52.80;30.10;;;;;;;-4.49;61.54;100691.03;10439357;28;20265;-64
2022/12/19 04:39:04;;;;;;;54.00;30.13;;;;;;;-3.79;60.11;100638.25;10440837;28;20234;-65
2022/12/19 04:44:06;;;;;;;50.53;28.90;;;;;;;-4.47;60.92;100676.13;10439544;28;20257;-68
2022/12/19 04:49:08;;;;;;;54.70;29.20;;;;;;;-4.26;60.74;100654.28;10436270;28;20252;-63
2022/12/19 04:54:34;;;;;;;49.83;27.97;;;;;;;-2.48;57.26;100568.16;10442158;28;20234;-65
2022/12/19 05:00:02;;;;;;;51.13;27.10;;;;;;;-2.96;58.57;100577.63;10440961;28;20303;-65
2022/12/19 05:05:28;;;;;;;43.50;26.63;;;;;;;-3.39;57.80;100626.81;10438607;28;20711;-64
2022/12/19 05:11:01;;;;;;;40.03;25.30;;;;;;;-2.83;57.07;100611.91;10439251;28;20235;-65
2022/12/19 05:16:26;;;;;;;48.50;28.33;;;;;;;-1.82;55.29;100569.84;10444307;28;20330;-66
2022/12/19 05:21:52;;;;;;;41.80;26.87;;;;;;;-2.71;56.10;100621.75;10442847;28;20759;-65
2022/12/19 05:27:18;;;;;;;56.57;32.57;;;;;;;-2.32;55.96;100607.53;10435148;28;20231;-64
2022/12/19 05:32:44;;;;;;;52.07;28.73;;;;;;;-2.48;55.18;100623.19;10434762;28;20231;-65
2022/12/19 05:38:10;;;;;;;51.10;33.27;;;;;;;-3.27;58.01;100655.03;10447398;28;20654;-66
2022/12/19 05:43:36;;;;;;;52.60;32.03;;;;;;;-3.02;58.13;100631.16;10426348;28;20673;-65
2022/12/19 05:49:02;;;;;;;57.40;31.60;;;;;;;-3.94;59.78;100699.09;10430832;28;20231;-64
2022/12/19 05:54:28;;;;;;;50.07;29.43;;;;;;;-3.40;59.59;100649.53;10433384;28;20238;-65
2022/12/19 05:59:54;;;;;;;48.87;28.53;;;;;;;-4.02;61.00;100672.44;10437567;28;20234;-68
2022/12/19 06:05:20;;;;;;;48.20;27.27;;;;;;;-2.58;57.71;100596.63;10432046;28;20317;-65
2022/12/19 06:10:46;;;;;;;51.27;29.70;;;;;;;-3.86;58.98;100696.13;10435858;28;20231;-65
2022/12/19 06:16:14;;;;;;;51.70;30.83;;;;;;;-4.19;61.01;100708.00;10434843;28;20705;-65
2022/12/19 06:21:39;;;;;;;59.07;34.40;;;;;;;-3.79;61.07;100663.53;10430956;28;20616;-66
2022/12/19 06:27:05;;;;;;;67.47;39.13;;;;;;;-3.36;60.35;100621.44;10429704;28;20226;-66
2022/12/19 06:32:32;;;;;;;66.03;39.70;;;;;;;-3.61;60.72;100639.13;10426970;28;20747;-66
2022/12/19 06:37:57;;;;;;;56.97;31.77;;;;;;;-3.52;60.67;100635.25;10433345;28;20602;-66
2022/12/19 06:43:24;;;;;;;53.47;30.93;;;;;;;-2.42;59.12;100554.75;10432085;28;20266;-65
2022/12/19 06:49:40;;;;;;;54.40;29.50;;;;;;;-2.18;57.87;100565.69;10429384;28;20228;-66
2022/12/19 06:55:56;;;;;;;53.60;30.63;;;;;;;-2.70;58.19;100603.34;10431831;28;20295;-66
2022/12/19 07:02:12;;;;;;;49.57;28.50;;;;;;;-2.00;57.00;100566.47;10426768;28;20707;-66
2022/12/19 07:08:28;;;;;;;54.90;29.30;;;;;;;-4.09;60.73;100690.16;10434511;28;20235;-66
2022/12/19 07:14:44;;;;;;;52.90;29.57;;;;;;;-3.12;59.74;100624.63;10430639;28;20593;-65
2022/12/19 07:20:59;;;;;;;48.50;28.70;;;;;;;-3.24;60.17;100637.38;10434258;28;20728;-61
2022/12/19 07:27:14;;;;;;;50.33;30.27;;;;;;;-2.08;57.95;100578.31;10427428;28;20232;-66
2022/12/19 07:33:29;;;;;;;52.47;30.23;;;;;;;-2.08;57.19;100604.53;10432895;28;20235;-64
2022/12/19 07:39:45;;;;;;;52.90;30.87;;;;;;;-2.54;57.82;100634.00;10440108;28;20227;-65
2022/12/19 07:46:00;;;;;;;56.07;34.40;;;;;;;-1.47;55.75;100623.97;10449717;28;20267;-66
2022/12/19 07:52:16;;;;;;;54.97;32.97;;;;;;;-1.90;56.67;100639.41;10426008;28;20234;-66
2022/12/19 07:58:31;;;;;;;61.03;34.17;;;;;;;-1.75;57.09;100644.69;10444333;28;20219;-66
2022/12/19 08:04:46;;;;;;;107.33;56.90;;;;;;;-2.81;59.85;100678.16;10441081;28;20236;-66
2022/12/19 08:11:02;;;;;;;84.73;45.97;;;;;;;-1.85;57.38;100633.00;10435476;28;20232;-66
2022/12/19 08:17:17;;;;;;;71.77;39.33;;;;;;;-1.97;57.59;100629.28;10438411;28;20214;-66
2022/12/19 08:23:33;;;;;;;53.40;32.90;;;;;;;-1.34;56.04;100634.59;10432967;28;20255;-62
2022/12/19 08:29:50;;;;;;;55.90;32.13;;;;;;;-1.73;57.08;100657.75;10450520;28;20243;-65
2022/12/19 08:36:06;;;;;;;92.60;50.07;;;;;;;-1.87;57.24;100649.75;10435005;28;20790;-63
2022/12/19 08:42:22;;;;;;;50.20;30.97;;;;;;;-0.43;55.76;100612.69;10437971;28;20231;-65
2022/12/19 08:48:38;;;;;;;50.53;29.70;;;;;;;-1.33;56.99;100624.00;10437974;28;20262;-66
2022/12/19 08:54:53;;;;;;;51.93;29.43;;;;;;;-0.80;57.07;100606.94;10439090;28;20227;-67
2022/12/19 09:01:09;;;;;;;45.33;28.63;;;;;;;-1.62;56.85;100657.97;10445802;28;20227;-67
2022/12/19 09:07:25;;;;;;;47.23;30.07;;;;;;;-2.16;59.33;100658.22;10438016;28;20339;-66
2022/12/19 09:13:41;;;;;;;54.83;31.47;;;;;;;-1.05;58.54;100591.78;10441272;28;20231;-66
2022/12/19 09:19:56;;;;;;;49.83;28.87;;;;;;;-1.65;58.43;100634.56;10444328;28;20457;-65
2022/12/19 09:26:11;;;;;;;49.67;30.17;;;;;;;-1.82;58.98;100624.09;10443005;28;20236;-66
2022/12/19 09:32:26;;;;;;;47.47;27.87;;;;;;;-0.91;57.27;100601.47;10436900;28;20255;-66
2022/12/19 09:38:41;;;;;;;51.07;32.83;;;;;;;-0.66;57.74;100581.63;10435042;28;20683;-65
2022/12/19 09:44:58;;;;;;;56.80;34.73;;;;;;;-1.19;58.64;100610.13;10436057;28;20235;-65
2022/12/19 09:51:14;;;;;;;54.43;33.50;;;;;;;-0.04;56.62;100584.03;10431264;28;20228;-66
2022/12/19 09:57:29;;;;;;;56.60;32.73;;;;;;;-0.27;56.99;100601.22;10444483;28;20430;-67
2022/12/19 10:03:44;;;;;;;52.17;31.83;;;;;;;-1.22;57.73;100605.88;10437383;28;20706;-65
2022/12/19 10:09:59;;;;;;;46.57;29.57;;;;;;;-1.01;59.64;100611.69;10437824;28;20235;-66
2022/12/19 10:16:15;;;;;;;48.00;30.27;;;;;;;-0.11;58.54;100578.31;10445053;28;20228;-66
2022/12/19 10:22:31;;;;;;;49.33;31.90;;;;;;;-1.04;59.24;100584.72;10445068;28;20803;-66
2022/12/19 10:28:46;;;;;;;50.50;28.93;;;;;;;-1.22;61.04;100563.84;10447479;28;20779;-66
2022/12/19 10:35:01;;;;;;;50.07;30.47;;;;;;;0.01;58.61;100539.00;10424496;28;20240;-66
2022/12/19 10:41:16;;;;;;;49.70;31.17;;;;;;;0.41;56.17;100574.16;10426351;28;20229;-67
2022/12/19 10:47:31;;;;;;;45.93;30.60;;;;;;;0.44;56.26;100573.09;10418714;28;20679;-66
2022/12/19 10:53:47;;;;;;;55.80;33.07;;;;;;;0.05;57.07;100566.81;10417790;28;20323;-66
2022/12/19 11:00:02;;;;;;;49.47;30.10;;;;;;;0.70;56.74;100563.50;10426847;28;20362;-65
2022/12/19 19:07:02;;;;;;;50.57;34.13;;;;;;;0.10;61.11;100362.06;10474490;28;20330;-67
2022/12/19 19:12:04;;;;;;;54.77;34.27;;;;;;;0.04;60.39;100375.63;10478280;28;20226;-66
2022/12/19 19:17:22;;;;;;;63.03;34.13;;;;;;;-0.15;61.32;100365.47;10477990;28;20240;-67
2022/12/19 19:22:24;;;;;;;50.40;31.10;;;;;;;-0.47;61.97;100371.03;10470252;28;20224;-67
2022/12/19 19:27:26;;;;;;;60.13;36.10;;;;;;;-1.02;64.14;100376.16;10477298;28;20684;-66
2022/12/19 19:32:28;;;;;;;56.33;34.83;;;;;;;0.22;61.15;100361.25;10474693;28;20320;-66
2022/12/19 19:37:30;;;;;;;85.73;50.23;;;;;;;-0.84;62.25;100365.44;10477492;28;20584;-67
2022/12/19 19:42:31;;;;;;;62.97;37.17;;;;;;;0.02;61.16;100362.59;10474813;28;20235;-66
2022/12/19 19:47:36;;;;;;;54.67;35.03;;;;;;;-0.02;61.29;100363.72;10476854;28;20235;-66
2022/12/19 19:52:38;;;;;;;50.23;32.33;;;;;;;0.03;61.77;100360.78;10483989;28;20861;-67
2022/12/19 19:57:40;;;;;;;49.97;33.13;;;;;;;0.24;60.14;100358.50;10483722;28;20248;-66
2022/12/19 20:02:42;;;;;;;55.60;36.53;;;;;;;-0.00;60.38;100361.00;10481564;28;20646;-66
2022/12/19 20:07:44;;;;;;;57.67;36.40;;;;;;;0.53;59.59;100363.59;10480958;28;20706;-67
2022/12/19 20:12:46;;;;;;;55.67;37.43;;;;;;;0.42;58.88;100370.44;10481349;28;20232;-67
2022/12/19 20:17:50;;;;;;;50.17;33.13;;;;;;;0.09;62.08;100371.75;10479420;28;20258;-67
2022/12/19 20:22:51;;;;;;;54.77;37.10;;;;;;;0.46;60.43;100358.75;10459864;28;20311;-67
2022/12/19 20:27:53;;;;;;;53.40;32.63;;;;;;;-0.02;60.62;100376.06;10481650;28;20313;-67
2022/12/19 20:32:55;;;;;;;48.67;32.20;;;;;;;0.64;60.36;100398.78;10480751;28;20620;-65
2022/12/19 20:37:56;;;;;;;44.90;30.97;;;;;;;0.29;60.47;100399.41;10480423;28;20232;-66
2022/12/19 20:42:58;;;;;;;51.10;32.97;;;;;;;0.05;61.24;100395.75;10482043;28;20247;-67
2022/12/19 20:48:00;;;;;;;50.17;32.47;;;;;;;0.25;60.36;100395.25;10482463;28;20235;-68
2022/12/19 20:53:01;;;;;;;53.57;36.67;;;;;;;0.15;60.47;100390.72;10473928;28;20237;-69
2022/12/19 20:58:03;;;;;;;56.43;39.07;;;;;;;-0.12;59.84;100378.44;10462593;28;20763;-68
2022/12/19 21:03:05;;;;;;;54.57;37.33;;;;;;;-0.55;60.63;100378.56;10470862;28;20224;-69
2022/12/19 21:08:27;;;;;;;67.20;41.23;;;;;;;-1.03;62.61;100395.47;10473787;28;20277;-67
2022/12/19 21:13:28;;;;;;;58.50;39.37;;;;;;;-0.58;63.23;100403.25;10476118;28;20260;-68
2022/12/19 21:18:30;;;;;;;54.90;33.43;;;;;;;0.21;61.09;100406.97;10481566;28;20249;-69
2022/12/19 21:23:32;;;;;;;52.73;32.73;;;;;;;0.30;59.71;100402.88;10481745;28;20653;-72
2022/12/19 21:28:34;;;;;;;55.13;35.77;;;;;;;0.67;59.61;100403.84;10481457;28;20243;-67
2022/12/19 21:33:36;;;;;;;57.63;36.40;;;;;;;-0.10;61.41;100382.66;10480144;28;20234;-66
2022/12/19 21:38:38;;;;;;;66.90;39.83;;;;;;;-0.80;62.46;100387.97;10477317;28;20899;-67
2022/12/19 21:43:40;;;;;;;58.10;36.27;;;;;;;-1.28;64.32;100392.66;10480707;28;20256;-66
2022/12/19 21:48:44;;;;;;;55.67;37.53;;;;;;;-1.10;64.74;100403.84;10478829;28;20240;-66
2022/12/19 21:53:46;;;;;;;53.53;33.37;;;;;;;-0.17;62.71;100394.50;10479253;28;20239;-66
2022/12/19 21:58:52;;;;;;;58.43;34.20;;;;;;;-0.18;62.08;100382.31;10478878;28;20711;-67
2022/12/19 22:04:05;;;;;;;58.73;37.13;;;;;;;-0.79;63.24;100394.91;10478000;28;20289;-67
2022/12/19 22:09:12;;;;;;;71.43;43.47;;;;;;;-0.92;63.02;100386.09;10478190;28;20229;-66
2022/12/19 22:14:15;;;;;;;60.73;38.87;;;;;;;-0.47;61.92;100378.91;10447368;28;20876;-67
2022/12/19 22:19:18;;;;;;;56.47;38.40;;;;;;;-0.37;62.13;100372.13;10439536;28;20242;-66
2022/12/19 22:24:20;;;;;;;60.37;38.43;;;;;;;0.50;60.64;100383.09;10464276;28;20237;-68
2022/12/19 22:29:22;;;;;;;61.30;39.20;;;;;;;-1.05;63.18;100363.22;10448025;28;20229;-66
2022/12/19 22:34:24;;;;;;;69.07;40.17;;;;;;;-0.16;62.79;100364.63;10427323;28;20233;-67
2022/12/19 22:39:25;;;;;;;57.50;36.47;;;;;;;0.01;61.69;100376.69;10435516;28;20236;-67
2022/12/19 22:44:27;;;;;;;54.53;35.70;;;;;;;0.04;61.41;100386.16;10421457;28;20247;-67
2022/12/19 22:49:29;;;;;;;53.70;33.93;;;;;;;0.94;59.39;100392.38;10466262;28;21076;-67
2022/12/19 22:54:30;;;;;;;54.50;32.90;;;;;;;0.64;60.83;100387.41;10478552;28;20724;-67
2022/12/19 22:59:32;;;;;;;54.83;33.70;;;;;;;0.55;59.66;100402.06;10478762;28;20239;-67
2022/12/19 23:04:34;;;;;;;51.53;31.80;;;;;;;-0.29;62.23;100369.84;10452581;28;20797;-66
2022/12/19 23:09:36;;;;;;;52.60;34.63;;;;;;;-0.11;62.34;100380.13;10478417;28;20268;-66
2022/12/19 23:14:38;;;;;;;51.97;33.50;;;;;;;0.08;61.49;100385.03;10477999;28;20748;-67
2022/12/19 23:19:39;;;;;;;52.70;33.37;;;;;;;0.75;60.49;100381.41;10478678;28;20911;-67
2022/12/19 23:24:43;;;;;;;50.63;33.20;;;;;;;0.10;62.94;100388.38;10481324;28;20324;-65
2022/12/19 23:29:45;;;;;;;51.90;31.00;;;;;;;-0.76;64.59;100373.69;10485820;28;20241;-65
2022/12/19 23:34:46;;;;;;;53.53;34.17;;;;;;;-0.33;62.95;100391.22;10482117;28;20241;-66
2022/12/19 23:39:48;;;;;;;58.53;36.97;;;;;;;0.27;62.25;100374.09;10485382;28;20242;-67
2022/12/19 23:44:50;;;;;;;58.50;39.17;;;;;;;-0.20;61.83;100352.63;10485637;28;20285;-66
2022/12/19 23:49:51;;;;;;;55.07;35.70;;;;;;;-0.70;64.40;100346.19;10485365;28;20255;-67
2022/12/19 23:54:53;;;;;;;57.63;37.87;;;;;;;-0.53;64.28;100335.47;10482630;28;20244;-68
2022/12/19 23:59:55;;;;;;;58.30;37.37;;;;;;;-0.24;63.55;100324.84;10485307;28;20242;-67
